createdAt,value
2022-12-31T00:01:41.565Z,19.00
2022-12-31T00:04:10.947Z,18.70
2022-12-31T00:06:41.982Z,18.33
2022-12-31T00:09:12.531Z,15.70
2022-12-31T00:11:42.393Z,17.08
2022-12-31T00:14:11.779Z,20.33
2022-12-31T00:16:43.303Z,18.02
2022-12-31T00:19:13.722Z,17.90
2022-12-31T00:21:45.888Z,20.00
2022-12-31T00:24:15.278Z,17.85
2022-12-31T00:26:44.896Z,18.00
2022-12-31T00:29:14.327Z,23.23
2022-12-31T00:31:43.922Z,18.13
2022-12-31T00:34:13.323Z,23.93
2022-12-31T00:36:46.186Z,20.13
2022-12-31T00:39:15.655Z,16.73
2022-12-31T00:41:45.360Z,16.30
2022-12-31T00:44:15.346Z,22.97
2022-12-31T00:49:13.768Z,16.95
2022-12-31T00:51:46.810Z,17.30
2022-12-31T00:54:16.398Z,17.88
2022-12-31T00:56:45.975Z,18.85
2022-12-31T00:59:15.472Z,15.57
2022-12-31T01:01:45.300Z,17.08
2022-12-31T01:04:16.637Z,18.67
2022-12-31T01:06:48.154Z,15.07
2022-12-31T01:09:18.529Z,16.67
2022-12-31T01:11:48.160Z,21.27
2022-12-31T01:14:19.055Z,17.50
2022-12-31T01:16:50.551Z,17.55
2022-12-31T01:19:22.047Z,19.45
2022-12-31T01:21:53.870Z,17.00
2022-12-31T01:24:23.805Z,16.08
2022-12-31T01:26:57.678Z,21.23
2022-12-31T01:29:29.692Z,16.88
2022-12-31T01:31:59.346Z,14.73
2022-12-31T01:34:28.789Z,14.53
2022-12-31T01:36:59.840Z,18.20
2022-12-31T01:39:29.196Z,17.00
2022-12-31T01:41:59.532Z,17.40
2022-12-31T01:44:54.701Z,17.38
2022-12-31T01:47:34.803Z,16.48
2022-12-31T01:50:12.330Z,15.48
2022-12-31T01:52:48.524Z,16.90
2022-12-31T01:55:21.574Z,18.65
2022-12-31T01:57:56.037Z,16.48
2022-12-31T02:00:25.520Z,15.38
2022-12-31T02:02:55.702Z,22.23
2022-12-31T02:05:28.818Z,16.35
2022-12-31T02:08:00.200Z,17.25
2022-12-31T02:10:29.555Z,17.52
2022-12-31T02:12:59.518Z,15.45
2022-12-31T02:15:38.609Z,16.40
2022-12-31T02:18:18.879Z,15.65
2022-12-31T02:21:17.523Z,16.77
2022-12-31T02:24:12.789Z,14.60
2022-12-31T02:26:54.864Z,13.73
2022-12-31T02:29:58.189Z,14.20
2022-12-31T02:32:44.310Z,14.52
2022-12-31T02:35:18.231Z,17.27
2022-12-31T02:37:54.219Z,16.13
2022-12-31T02:40:24.883Z,15.50
2022-12-31T02:45:33.375Z,14.48
2022-12-31T02:48:32.498Z,14.43
2022-12-31T02:51:13.992Z,13.97
2022-12-31T02:54:15.402Z,15.48
2022-12-31T02:56:53.594Z,14.68
2022-12-31T02:59:43.579Z,15.23
2022-12-31T03:04:53.541Z,15.32
2022-12-31T03:07:25.610Z,16.15
2022-12-31T03:09:55.511Z,13.10
2022-12-31T03:15:21.055Z,14.15
2022-12-31T03:17:52.976Z,12.95
2022-12-31T03:20:44.133Z,12.60
2022-12-31T03:23:17.587Z,12.45
2022-12-31T03:25:46.309Z,12.13
2022-12-31T03:28:18.698Z,11.38
2022-12-31T03:30:50.276Z,13.70
2022-12-31T03:33:21.438Z,9.57
2022-12-31T03:35:53.097Z,11.73
2022-12-31T03:38:23.052Z,12.07
2022-12-31T03:40:55.373Z,13.40
2022-12-31T03:43:25.055Z,14.35
2022-12-31T03:45:55.765Z,10.70
2022-12-31T03:48:25.860Z,13.93
2022-12-31T03:50:56.880Z,11.00
2022-12-31T03:53:27.461Z,14.20
2022-12-31T03:55:56.978Z,10.48
2022-12-31T03:58:26.633Z,10.40
2022-12-31T04:00:56.158Z,11.87
2022-12-31T04:03:25.994Z,10.77
2022-12-31T04:05:57.328Z,12.63
2022-12-31T04:08:27.047Z,10.85
2022-12-31T04:10:56.309Z,9.27
2022-12-31T04:13:26.080Z,9.07
2022-12-31T04:15:55.928Z,10.00
2022-12-31T04:18:25.642Z,9.60
2022-12-31T04:20:56.371Z,8.73
2022-12-31T04:23:26.519Z,9.18
2022-12-31T04:25:55.934Z,8.57
2022-12-31T04:28:26.609Z,8.80
2022-12-31T04:30:55.969Z,10.75
2022-12-31T04:33:25.624Z,9.77
2022-12-31T04:36:01.401Z,10.77
2022-12-31T04:38:31.311Z,11.65
2022-12-31T04:41:18.703Z,8.40
2022-12-31T04:43:50.200Z,10.55
2022-12-31T04:46:21.514Z,9.38
2022-12-31T04:48:51.405Z,10.55
2022-12-31T04:51:22.675Z,11.60
2022-12-31T04:53:52.822Z,10.95
2022-12-31T04:56:22.828Z,14.65
2022-12-31T04:58:52.634Z,11.27
2022-12-31T05:01:22.608Z,10.52
2022-12-31T05:06:24.776Z,13.70
2022-12-31T05:08:54.468Z,13.90
2022-12-31T05:11:23.847Z,12.90
2022-12-31T05:13:53.518Z,12.20
2022-12-31T05:16:22.935Z,13.53
2022-12-31T05:18:52.590Z,10.35
2022-12-31T05:21:23.650Z,11.40
2022-12-31T05:23:53.454Z,12.70
2022-12-31T05:26:22.808Z,10.30
2022-12-31T05:28:52.389Z,13.00
2022-12-31T05:31:21.838Z,12.90
2022-12-31T05:33:51.409Z,11.13
2022-12-31T05:36:22.257Z,10.85
2022-12-31T05:38:51.907Z,12.07
2022-12-31T05:41:21.265Z,13.70
2022-12-31T05:43:52.526Z,10.60
2022-12-31T05:46:21.922Z,10.50
2022-12-31T05:48:51.532Z,10.38
2022-12-31T05:51:22.386Z,13.70
2022-12-31T05:53:52.131Z,9.88
2022-12-31T05:56:21.737Z,12.47
2022-12-31T05:58:51.584Z,11.85
2022-12-31T06:01:21.026Z,12.87
2022-12-31T06:03:50.782Z,11.02
2022-12-31T06:06:20.160Z,11.35
2022-12-31T06:08:53.336Z,9.73
2022-12-31T06:11:22.696Z,13.00
2022-12-31T06:13:52.322Z,11.98
2022-12-31T06:16:22.777Z,10.30
2022-12-31T06:18:52.497Z,12.23
2022-12-31T06:21:23.275Z,11.00
2022-12-31T06:23:54.395Z,10.52
2022-12-31T06:26:24.023Z,11.20
2022-12-31T06:28:54.276Z,10.40
2022-12-31T06:31:23.834Z,10.50
2022-12-31T06:33:53.460Z,10.10
2022-12-31T06:36:23.023Z,13.30
2022-12-31T06:38:55.291Z,9.43
2022-12-31T06:41:24.645Z,12.60
2022-12-31T06:43:54.229Z,11.63
2022-12-31T06:46:23.698Z,10.70
2022-12-31T06:48:53.334Z,10.13
2022-12-31T06:51:23.262Z,10.55
2022-12-31T06:56:32.979Z,8.20
2022-12-31T06:59:05.011Z,10.45
2022-12-31T07:01:49.126Z,10.40
2022-12-31T07:04:59.590Z,10.50
2022-12-31T07:07:34.065Z,8.45
2022-12-31T07:10:17.805Z,10.23
2022-12-31T07:13:03.857Z,12.43
2022-12-31T07:15:57.919Z,9.30
2022-12-31T07:18:37.820Z,8.70
2022-12-31T07:21:14.594Z,10.02
2022-12-31T07:23:46.000Z,10.02
2022-12-31T07:26:26.928Z,8.55
2022-12-31T07:29:11.725Z,9.70
2022-12-31T07:31:56.685Z,9.20
2022-12-31T07:34:38.482Z,9.25
2022-12-31T07:37:14.133Z,9.82
2022-12-31T07:39:55.529Z,9.02
2022-12-31T07:42:31.656Z,9.18
2022-12-31T07:45:12.424Z,8.50
2022-12-31T07:47:42.503Z,7.72
2022-12-31T07:50:17.493Z,8.35
2022-12-31T07:52:47.889Z,6.53
2022-12-31T07:55:17.364Z,7.65
2022-12-31T07:57:55.551Z,6.43
2022-12-31T08:00:27.329Z,7.45
2022-12-31T08:03:17.658Z,9.63
2022-12-31T08:05:54.885Z,7.15
2022-12-31T08:08:36.121Z,6.20
2022-12-31T08:11:15.137Z,7.60
2022-12-31T08:13:45.105Z,8.57
2022-12-31T08:16:16.749Z,7.72
2022-12-31T08:18:46.978Z,8.15
2022-12-31T08:21:34.859Z,7.25
2022-12-31T08:24:15.659Z,6.50
2022-12-31T08:26:56.364Z,6.80
2022-12-31T08:29:37.384Z,5.85
2022-12-31T08:32:14.636Z,8.10
2022-12-31T08:34:55.819Z,8.75
2022-12-31T08:37:36.769Z,7.82
2022-12-31T08:40:19.118Z,6.43
2022-12-31T08:43:05.499Z,7.38
2022-12-31T08:45:39.671Z,6.20
2022-12-31T08:48:22.989Z,6.68
2022-12-31T08:50:53.267Z,7.20
2022-12-31T08:53:23.507Z,6.38
2022-12-31T08:58:41.165Z,7.05
2022-12-31T09:01:13.723Z,8.70
2022-12-31T09:04:12.418Z,7.35
2022-12-31T09:06:45.497Z,7.93
2022-12-31T09:09:23.592Z,7.78
2022-12-31T09:12:01.601Z,8.18
2022-12-31T09:14:47.176Z,7.75
2022-12-31T09:17:41.744Z,6.82
2022-12-31T09:20:18.302Z,7.95
2022-12-31T09:22:48.375Z,10.48
2022-12-31T09:25:19.810Z,9.93
2022-12-31T09:28:12.714Z,9.07
2022-12-31T09:30:52.131Z,9.10
2022-12-31T09:33:37.883Z,9.02
2022-12-31T09:36:15.973Z,11.32
2022-12-31T09:38:53.150Z,9.38
2022-12-31T09:42:04.049Z,9.05
2022-12-31T09:45:00.875Z,8.57
2022-12-31T09:48:05.105Z,8.05
2022-12-31T09:50:57.716Z,7.65
2022-12-31T09:53:40.428Z,7.78
2022-12-31T09:56:18.629Z,9.77
2022-12-31T09:58:59.886Z,7.85
2022-12-31T10:01:43.965Z,10.55
2022-12-31T10:04:41.089Z,10.38
2022-12-31T10:07:25.990Z,7.75
2022-12-31T10:10:08.638Z,8.20
2022-12-31T10:13:15.601Z,10.15
2022-12-31T10:16:19.622Z,8.90
2022-12-31T10:19:16.418Z,9.95
2022-12-31T10:21:56.142Z,8.57
2022-12-31T10:25:04.937Z,11.43
2022-12-31T10:27:46.130Z,10.07
2022-12-31T10:30:19.250Z,10.77
2022-12-31T10:33:01.075Z,9.00
2022-12-31T10:35:40.056Z,9.90
2022-12-31T10:38:31.166Z,12.77
2022-12-31T10:41:36.513Z,12.73
2022-12-31T10:44:50.131Z,9.63
2022-12-31T10:47:55.781Z,10.52
2022-12-31T10:50:49.335Z,10.32
2022-12-31T10:53:53.774Z,9.75
2022-12-31T10:56:57.311Z,9.93
2022-12-31T11:00:01.892Z,11.25
2022-12-31T11:03:11.822Z,10.20
2022-12-31T11:06:29.024Z,8.88
2022-12-31T11:09:48.963Z,11.40
2022-12-31T11:12:41.095Z,11.10
2022-12-31T11:15:31.499Z,11.30
2022-12-31T11:18:10.108Z,13.02
2022-12-31T11:20:52.903Z,11.18
2022-12-31T11:23:36.667Z,16.08
2022-12-31T11:26:14.617Z,13.60
2022-12-31T11:29:10.018Z,13.95
2022-12-31T11:31:52.478Z,12.05
2022-12-31T11:34:44.417Z,11.13
2022-12-31T11:37:30.981Z,13.32
2022-12-31T11:40:15.801Z,12.32
2022-12-31T11:42:53.448Z,13.23
2022-12-31T11:45:53.966Z,10.88
2022-12-31T11:48:31.676Z,9.73
2022-12-31T11:51:23.974Z,10.60
2022-12-31T11:54:19.414Z,12.02
2022-12-31T11:57:00.273Z,8.68
2022-12-31T11:59:29.819Z,9.50
2022-12-31T12:02:05.544Z,9.10
2022-12-31T12:04:35.006Z,7.95
2022-12-31T12:07:04.610Z,11.07
2022-12-31T12:09:36.915Z,9.43
2022-12-31T12:12:08.021Z,9.93
2022-12-31T12:14:39.974Z,9.10
2022-12-31T12:17:16.460Z,9.07
2022-12-31T12:19:48.212Z,7.78
2022-12-31T12:22:24.558Z,8.80
2022-12-31T12:24:56.845Z,8.95
2022-12-31T12:27:30.819Z,9.35
2022-12-31T12:30:09.293Z,8.32
2022-12-31T12:32:41.052Z,8.80
2022-12-31T12:35:18.302Z,7.72
2022-12-31T12:37:48.006Z,9.52
2022-12-31T12:40:29.783Z,6.90
2022-12-31T12:43:03.876Z,8.90
2022-12-31T12:45:42.582Z,7.93
2022-12-31T12:48:21.218Z,7.82
2022-12-31T12:50:51.416Z,8.52
2022-12-31T12:53:43.279Z,10.00
2022-12-31T12:56:25.432Z,9.13
2022-12-31T12:59:11.189Z,11.48
2022-12-31T13:01:48.549Z,10.45
2022-12-31T13:04:42.933Z,11.70
2022-12-31T13:07:29.317Z,10.27
2022-12-31T13:10:14.223Z,10.85
2022-12-31T13:13:22.919Z,11.80
2022-12-31T13:15:49.534Z,7.22
2022-12-31T13:18:34.499Z,9.93
2022-12-31T13:21:21.082Z,9.10
2022-12-31T13:23:55.761Z,8.38
2022-12-31T13:26:34.005Z,9.75
2022-12-31T13:29:05.690Z,9.23
2022-12-31T13:31:38.842Z,8.05
2022-12-31T13:34:14.248Z,8.77
2022-12-31T13:36:48.835Z,7.43
2022-12-31T13:39:21.963Z,10.00
2022-12-31T13:41:58.089Z,11.48
2022-12-31T13:44:32.463Z,8.82
2022-12-31T13:47:09.931Z,11.43
2022-12-31T13:49:43.862Z,10.68
2022-12-31T13:52:28.637Z,9.23
2022-12-31T13:55:05.454Z,9.25
2022-12-31T13:57:43.989Z,9.88
2022-12-31T14:00:25.468Z,9.18
2022-12-31T14:03:03.997Z,8.18
2022-12-31T14:05:39.099Z,12.05
2022-12-31T14:08:11.104Z,11.65
2022-12-31T14:10:52.207Z,9.18
2022-12-31T14:13:45.417Z,8.70
2022-12-31T14:16:25.888Z,7.88
2022-12-31T14:19:06.593Z,8.65
2022-12-31T14:24:17.126Z,8.95
2022-12-31T14:26:50.638Z,7.65
2022-12-31T14:29:33.234Z,8.63
2022-12-31T14:32:38.636Z,6.95
2022-12-31T14:35:22.399Z,7.88
2022-12-31T14:38:00.254Z,8.18
2022-12-31T14:40:43.071Z,6.93
2022-12-31T14:43:25.076Z,6.68
2022-12-31T14:46:05.219Z,6.57
2022-12-31T14:48:44.253Z,6.97
2022-12-31T14:51:15.004Z,6.68
2022-12-31T14:53:54.394Z,8.05
2022-12-31T14:56:34.199Z,7.70
2022-12-31T14:59:04.925Z,6.45
2022-12-31T15:01:45.582Z,6.53
2022-12-31T15:04:16.999Z,6.95
2022-12-31T15:07:06.196Z,6.25
2022-12-31T15:10:11.710Z,7.53
2022-12-31T15:12:56.981Z,6.47
2022-12-31T15:15:50.432Z,5.05
2022-12-31T15:18:50.320Z,5.45
2022-12-31T15:21:41.580Z,8.02
2022-12-31T15:24:22.624Z,7.60
2022-12-31T15:26:54.389Z,5.60
2022-12-31T15:29:32.187Z,5.47
2022-12-31T15:32:05.030Z,5.35
2022-12-31T15:34:36.387Z,5.68
2022-12-31T15:37:07.841Z,7.05
2022-12-31T15:39:43.267Z,6.65
2022-12-31T15:42:49.414Z,5.55
2022-12-31T15:45:27.402Z,5.13
2022-12-31T15:48:00.662Z,5.70
2022-12-31T15:50:32.183Z,6.72
2022-12-31T15:53:04.502Z,6.72
2022-12-31T15:55:41.559Z,14.02
2022-12-31T15:58:15.190Z,5.43
2022-12-31T16:00:58.723Z,7.18
2022-12-31T16:03:30.449Z,6.57
2022-12-31T16:06:03.705Z,7.82
2022-12-31T16:08:36.333Z,9.57
2022-12-31T16:11:07.110Z,4.75
2022-12-31T16:13:40.525Z,4.65
2022-12-31T16:16:22.817Z,5.22
2022-12-31T16:18:55.399Z,4.97
2022-12-31T16:21:29.910Z,6.53
2022-12-31T16:24:02.529Z,4.55
2022-12-31T16:26:38.881Z,4.78
2022-12-31T16:29:08.392Z,5.07
2022-12-31T16:31:40.649Z,5.70
2022-12-31T16:34:16.373Z,5.97
2022-12-31T16:36:57.481Z,7.63
2022-12-31T16:39:29.834Z,6.43
2022-12-31T16:42:17.578Z,5.15
2022-12-31T16:44:47.536Z,4.70
2022-12-31T16:47:21.840Z,6.82
2022-12-31T16:50:00.276Z,3.85
2022-12-31T16:52:33.977Z,5.55
2022-12-31T16:55:08.449Z,8.00
2022-12-31T16:57:40.015Z,4.47
2022-12-31T17:00:16.291Z,4.90
2022-12-31T17:02:53.904Z,4.20
2022-12-31T17:05:25.489Z,3.50
2022-12-31T17:07:55.449Z,3.85
2022-12-31T17:10:27.151Z,2.33
2022-12-31T17:15:49.594Z,2.92
2022-12-31T17:18:23.977Z,3.25
2022-12-31T17:20:56.037Z,2.85
2022-12-31T17:23:29.953Z,2.47
2022-12-31T17:26:01.384Z,2.58
2022-12-31T17:28:40.075Z,1.95
2022-12-31T17:31:29.343Z,2.35
2022-12-31T17:34:21.299Z,3.38
2022-12-31T17:37:02.142Z,2.05
2022-12-31T17:39:47.941Z,2.47
2022-12-31T17:42:26.152Z,2.70
2022-12-31T17:44:59.740Z,2.65
2022-12-31T17:47:37.068Z,2.50
2022-12-31T17:50:19.392Z,3.47
2022-12-31T17:52:49.352Z,2.33
2022-12-31T17:57:53.101Z,3.25
2022-12-31T18:00:25.366Z,2.30
2022-12-31T18:02:55.061Z,1.50
2022-12-31T18:05:26.914Z,2.78
2022-12-31T18:07:57.267Z,1.77
2022-12-31T18:10:28.997Z,1.80
2022-12-31T18:12:58.953Z,3.38
2022-12-31T18:15:28.643Z,1.40
2022-12-31T18:17:57.947Z,2.83
2022-12-31T18:20:29.480Z,1.77
2022-12-31T18:22:58.978Z,4.65
2022-12-31T18:25:28.678Z,7.40
2022-12-31T18:27:58.068Z,4.18
2022-12-31T18:30:27.851Z,2.85
2022-12-31T18:32:57.295Z,2.50
2022-12-31T18:38:20.047Z,2.30
2022-12-31T18:40:56.091Z,3.13
2022-12-31T18:43:26.121Z,2.97
2022-12-31T18:45:55.960Z,2.00
2022-12-31T18:48:25.602Z,3.67
2022-12-31T18:50:57.348Z,4.07
2022-12-31T18:53:28.138Z,4.97
2022-12-31T18:55:59.239Z,1.95
2022-12-31T18:58:28.608Z,1.95
2022-12-31T19:00:58.354Z,2.90
2022-12-31T19:03:28.505Z,2.03
2022-12-31T19:05:59.697Z,2.72
2022-12-31T19:08:29.129Z,2.13
2022-12-31T19:10:59.117Z,1.65
2022-12-31T19:13:28.493Z,2.85
2022-12-31T19:15:58.801Z,3.60
2022-12-31T19:18:28.160Z,3.25
2022-12-31T19:20:59.207Z,1.92
2022-12-31T19:23:28.624Z,3.10
2022-12-31T19:25:58.278Z,2.05
2022-12-31T19:28:29.042Z,2.58
2022-12-31T19:30:58.776Z,1.80
2022-12-31T19:33:28.179Z,2.20
2022-12-31T19:35:59.269Z,1.80
2022-12-31T19:38:32.199Z,2.72
2022-12-31T19:41:03.225Z,2.00
2022-12-31T19:43:32.667Z,2.20
2022-12-31T19:46:06.015Z,2.05
2022-12-31T19:48:35.557Z,2.60
2022-12-31T19:51:11.490Z,1.70
2022-12-31T19:53:41.156Z,2.58
2022-12-31T19:56:14.320Z,3.20
2022-12-31T19:58:43.873Z,2.10
2022-12-31T20:01:21.053Z,2.38
2022-12-31T20:03:51.040Z,2.67
2022-12-31T20:08:52.417Z,2.40
2022-12-31T20:11:23.867Z,2.47
2022-12-31T20:13:54.269Z,3.20
2022-12-31T20:16:26.867Z,3.58
2022-12-31T20:18:56.476Z,2.50
2022-12-31T20:21:29.761Z,3.63
2022-12-31T20:23:59.295Z,2.70
2022-12-31T20:26:29.067Z,4.18
2022-12-31T20:28:58.402Z,3.05
2022-12-31T20:31:28.910Z,2.70
2022-12-31T20:33:58.414Z,2.53
2022-12-31T20:36:29.483Z,3.45
2022-12-31T20:39:00.400Z,2.28
2022-12-31T20:41:32.186Z,2.65
2022-12-31T20:44:01.957Z,2.45
2022-12-31T20:46:32.377Z,2.33
2022-12-31T20:51:35.914Z,11.60
2022-12-31T20:54:07.325Z,13.18
2022-12-31T20:56:40.001Z,6.47
2022-12-31T20:59:10.738Z,2.30
2022-12-31T21:02:19.559Z,5.05
2022-12-31T21:04:30.788Z,3.47
2022-12-31T21:09:31.803Z,2.00
2022-12-31T21:12:19.138Z,1.58
2022-12-31T21:14:48.559Z,31.88
2022-12-31T21:17:18.321Z,7.95
2022-12-31T21:19:48.664Z,7.78
2022-12-31T21:22:19.997Z,6.85
2022-12-31T21:24:49.399Z,6.38
2022-12-31T21:27:19.190Z,5.32
2022-12-31T21:30:16.950Z,6.93
2022-12-31T21:32:38.259Z,8.00
2022-12-31T21:38:03.659Z,7.93
2022-12-31T21:40:34.571Z,7.97
2022-12-31T21:43:04.541Z,7.20
2022-12-31T21:45:33.938Z,8.93
2022-12-31T21:48:22.412Z,8.00
2022-12-31T21:50:54.127Z,5.65
2022-12-31T21:53:34.167Z,5.80
2022-12-31T21:56:08.667Z,8.13
2022-12-31T21:58:39.783Z,7.70
2022-12-31T22:01:29.517Z,25.27
2022-12-31T22:03:59.329Z,6.43
2022-12-31T22:06:29.108Z,14.75
2022-12-31T22:09:00.469Z,16.55
2022-12-31T22:11:30.900Z,3.45
2022-12-31T22:14:00.869Z,2.50
2022-12-31T22:16:30.392Z,2.97
2022-12-31T22:19:00.130Z,2.03
2022-12-31T22:21:29.490Z,2.47
2022-12-31T22:24:03.009Z,2.03
2022-12-31T22:26:32.534Z,1.38
2022-12-31T22:29:02.149Z,1.23
2022-12-31T22:31:32.084Z,1.03
2022-12-31T22:36:31.721Z,0.77
2022-12-31T22:39:02.809Z,1.88
2022-12-31T22:41:32.556Z,2.85
2022-12-31T22:44:04.913Z,1.08
2022-12-31T22:46:35.312Z,0.88
2022-12-31T22:49:05.943Z,1.50
2022-12-31T22:51:56.516Z,0.90
2022-12-31T22:54:26.750Z,1.35
2022-12-31T22:56:56.152Z,1.10
2022-12-31T22:59:25.731Z,1.65
2022-12-31T23:01:55.271Z,107.15
2022-12-31T23:04:25.029Z,123.95
2022-12-31T23:06:54.382Z,10.75
2022-12-31T23:09:42.960Z,19.65
2022-12-31T23:12:12.819Z,45.47
2022-12-31T23:14:59.952Z,62.33
2022-12-31T23:17:47.306Z,65.45
2022-12-31T23:20:36.939Z,71.85
2022-12-31T23:23:10.476Z,41.67
2022-12-31T23:25:43.838Z,34.42
2022-12-31T23:28:16.080Z,32.03
2022-12-31T23:30:46.508Z,25.63
2022-12-31T23:33:17.680Z,24.15
2022-12-31T23:35:47.982Z,20.10
2022-12-31T23:38:19.544Z,22.90
2022-12-31T23:40:50.675Z,26.90
2022-12-31T23:43:23.009Z,29.63
2022-12-31T23:45:53.475Z,22.88
2022-12-31T23:50:54.313Z,18.98
2022-12-31T23:53:24.305Z,16.15
2022-12-31T23:55:55.505Z,14.70
2022-12-31T23:58:24.950Z,16.23
